Time;durP1;ratioP1;P1;durP2;ratioP2;P2;SDS_P1;SDS_P2;PMS_P1;PMS_P2;Temp;Humidity;BMP_temperature;BMP_pressure;BME280_temperature;BME280_humidity;BME280_pressure;Samples;Min_cycle;Max_cycle;Signal;HPM_P1;HPM_P2
2023/10/02 00:03:40;;;;;;;19.15;8.23;;;12.00;99.90;;;;;;5094803;28;20028;-74
2023/10/02 00:06:07;;;;;;;18.17;7.85;;;12.00;99.90;;;;;;5094595;28;20488;-73
2023/10/02 00:08:40;;;;;;;18.17;7.82;;;12.00;99.90;;;;;;5094546;28;20055;-74
2023/10/02 00:11:36;;;;;;;13.73;6.93;;;11.90;99.90;;;;;;5094414;28;20034;-74
2023/10/02 00:14:23;;;;;;;17.45;8.10;;;11.90;99.90;;;;;;5094693;28;20122;-74
2023/10/02 00:16:59;;;;;;;15.55;7.25;;;11.90;99.90;;;;;;5094821;28;20134;-74
2023/10/02 00:19:39;;;;;;;18.85;8.13;;;11.90;99.90;;;;;;5076364;28;20523;-74
2023/10/02 00:24:58;;;;;;;17.38;8.15;;;11.80;99.90;;;;;;5094735;28;20039;-74
2023/10/02 00:27:24;;;;;;;21.77;9.10;;;11.80;99.90;;;;;;5076156;28;20475;-73
2023/10/02 00:29:57;;;;;;;17.98;7.65;;;11.80;99.90;;;;;;5077171;28;20049;-74
2023/10/02 00:32:26;;;;;;;16.48;8.00;;;11.80;99.90;;;;;;5075781;28;20048;-74
2023/10/02 00:34:53;;;;;;;18.23;8.15;;;11.80;99.90;;;;;;5094669;28;20115;-74
2023/10/02 00:37:19;;;;;;;19.58;7.43;;;11.80;99.90;;;;;;5076994;28;20391;-75
2023/10/02 00:39:48;;;;;;;17.40;7.97;;;11.70;99.90;;;;;;5097543;28;20154;-75
2023/10/02 00:42:16;;;;;;;19.23;8.77;;;11.70;99.90;;;;;;5096239;28;20035;-76
2023/10/02 00:44:57;;;;;;;19.65;8.48;;;11.60;99.90;;;;;;5095736;28;20031;-74
2023/10/02 00:47:42;;;;;;;15.68;7.38;;;11.70;99.90;;;;;;5094777;28;20023;-74
2023/10/02 00:50:18;;;;;;;18.63;7.82;;;11.70;99.90;;;;;;5095901;28;20028;-74
2023/10/02 00:52:59;;;;;;;20.25;8.77;;;11.70;99.90;;;;;;5098800;28;20032;-74
2023/10/02 00:55:32;;;;;;;17.42;8.00;;;11.70;99.90;;;;;;5098472;28;20020;-75
2023/10/02 00:58:03;;;;;;;18.65;7.95;;;11.70;99.90;;;;;;5099132;28;20145;-74
2023/10/02 01:00:31;;;;;;;18.15;8.07;;;11.70;99.90;;;;;;5081497;28;20028;-74
2023/10/02 01:02:58;;;;;;;20.65;7.90;;;11.70;99.90;;;;;;5076551;28;20107;-74
2023/10/02 01:05:41;;;;;;;15.73;7.70;;;11.70;99.90;;;;;;5076587;28;20028;-74
2023/10/02 01:08:23;;;;;;;15.90;7.22;;;11.70;99.90;;;;;;5094397;28;20030;-74
2023/10/02 01:10:59;;;;;;;17.75;8.30;;;11.70;99.90;;;;;;5076517;28;20468;-74
2023/10/02 01:13:35;;;;;;;18.52;8.50;;;11.70;99.90;;;;;;5095898;28;20016;-74
2023/10/02 01:16:04;;;;;;;22.60;8.07;;;11.60;99.90;;;;;;5080068;28;20062;-74
2023/10/02 01:18:30;;;;;;;17.15;8.13;;;11.70;99.90;;;;;;5098724;28;20028;-74
2023/10/02 01:21:00;;;;;;;16.02;7.97;;;11.70;99.90;;;;;;5098466;28;20043;-74
2023/10/02 01:23:30;;;;;;;16.63;7.68;;;11.70;99.90;;;;;;5098402;28;20020;-74
2023/10/02 01:25:57;;;;;;;19.58;8.10;;;11.70;99.90;;;;;;5099421;28;20027;-74
2023/10/02 01:28:32;;;;;;;18.65;8.13;;;11.70;99.90;;;;;;5098949;28;20028;-74
2023/10/02 01:31:01;;;;;;;21.90;8.32;;;11.70;99.90;;;;;;5080606;28;20051;-73
2023/10/02 01:33:26;;;;;;;14.48;7.95;;;11.70;99.90;;;;;;5083879;28;20490;-74
2023/10/02 01:35:57;;;;;;;22.05;9.00;;;11.70;99.90;;;;;;5084567;28;20091;-74
2023/10/02 01:38:27;;;;;;;18.95;8.43;;;11.80;99.90;;;;;;5081544;28;20058;-74
2023/10/02 01:41:04;;;;;;;18.63;8.02;;;11.80;99.90;;;;;;5079902;28;20486;-74
2023/10/02 01:43:51;;;;;;;17.40;7.47;;;11.80;99.90;;;;;;5079778;28;20020;-74
2023/10/02 01:46:22;;;;;;;17.40;7.35;;;11.70;99.90;;;;;;5078533;28;20028;-74
2023/10/02 01:48:51;;;;;;;19.65;8.15;;;11.70;99.90;;;;;;5097254;28;20094;-74
2023/10/02 01:51:25;;;;;;;21.02;8.20;;;11.60;99.90;;;;;;5097056;28;20044;-74
2023/10/02 01:54:15;;;;;;;14.55;7.10;;;11.60;99.90;;;;;;5097045;28;20125;-74
2023/10/02 01:56:45;;;;;;;15.63;7.80;;;11.60;99.90;;;;;;5097102;28;20031;-74
2023/10/02 01:59:14;;;;;;;15.57;7.55;;;11.60;99.90;;;;;;5097031;28;20039;-74
2023/10/02 02:01:51;;;;;;;21.15;8.55;;;11.50;99.90;;;;;;5096964;28;20024;-74
2023/10/02 02:04:22;;;;;;;19.48;8.27;;;11.50;99.90;;;;;;5097368;28;20024;-73
2023/10/02 02:06:52;;;;;;;15.40;6.97;;;11.50;99.90;;;;;;5097676;28;20051;-74
2023/10/02 02:09:24;;;;;;;18.42;7.43;;;11.50;99.90;;;;;;5096902;28;20031;-74
2023/10/02 02:14:40;;;;;;;17.45;8.07;;;11.40;99.90;;;;;;5097814;28;20149;-73
2023/10/02 02:17:10;;;;;;;19.52;8.40;;;11.40;99.90;;;;;;5097552;28;20101;-73
2023/10/02 02:19:37;;;;;;;19.15;8.27;;;11.40;99.90;;;;;;5078982;28;20039;-73
2023/10/02 02:22:03;;;;;;;18.67;7.85;;;11.40;99.90;;;;;;5097484;28;20035;-75
2023/10/02 02:24:34;;;;;;;16.42;7.25;;;11.40;99.90;;;;;;5079009;28;20430;-74
2023/10/02 02:27:04;;;;;;;18.42;7.75;;;11.40;99.90;;;;;;5097571;28;20016;-74
2023/10/02 02:29:30;;;;;;;17.92;8.27;;;11.40;99.90;;;;;;5079006;28;20024;-74
2023/10/02 02:31:56;;;;;;;17.30;7.82;;;11.40;99.90;;;;;;5099141;28;20113;-77
2023/10/02 02:34:24;;;;;;;14.30;7.05;;;11.30;99.90;;;;;;5100297;28;20028;-74
2023/10/02 02:36:50;;;;;;;20.75;8.02;;;11.30;99.90;;;;;;5099762;28;20024;-76
2023/10/02 02:39:21;;;;;;;23.77;8.52;;;11.30;99.90;;;;;;5082148;28;20028;-74
2023/10/02 02:44:52;;;;;;;16.10;6.90;;;11.30;99.90;;;;;;5099072;28;20412;-74
2023/10/02 02:47:23;;;;;;;19.90;8.00;;;11.20;99.90;;;;;;5097258;28;20533;-76
2023/10/02 02:49:59;;;;;;;16.25;8.30;;;11.20;99.90;;;;;;5097152;28;20131;-74
2023/10/02 02:52:28;;;;;;;18.85;8.18;;;11.10;99.90;;;;;;5097100;28;20032;-74
2023/10/02 02:55:12;;;;;;;15.90;7.77;;;11.10;99.90;;;;;;5097349;28;20067;-74
2023/10/02 02:57:39;;;;;;;16.25;8.02;;;11.10;99.90;;;;;;5097854;28;20032;-74
2023/10/02 03:02:53;;;;;;;17.38;7.90;;;11.10;99.90;;;;;;5097427;28;20127;-73
2023/10/02 03:05:21;;;;;;;19.17;8.57;;;11.10;99.90;;;;;;5096345;28;20558;-74
2023/10/02 03:07:54;;;;;;;18.50;7.70;;;11.00;99.90;;;;;;5096414;28;20096;-74
2023/10/02 03:10:22;;;;;;;19.52;8.38;;;11.10;99.90;;;;;;5078736;28;20266;-74
2023/10/02 03:12:48;;;;;;;21.17;8.20;;;11.10;99.90;;;;;;5078448;28;20040;-73
2023/10/02 03:15:48;;;;;;;18.30;8.77;;;11.10;99.90;;;;;;5097313;28;20060;-74
2023/10/02 03:18:30;;;;;;;23.00;8.32;;;11.10;99.90;;;;;;5097257;28;20074;-74
2023/10/02 03:20:58;;;;;;;20.10;8.93;;;11.10;99.90;;;;;;5097156;28;20105;-74
2023/10/02 03:23:27;;;;;;;18.27;7.63;;;11.10;99.90;;;;;;5097155;28;20383;-73
2023/10/02 03:25:56;;;;;;;17.05;7.85;;;11.10;99.90;;;;;;5079431;28;20051;-73
2023/10/02 03:28:31;;;;;;;19.27;8.67;;;11.00;99.90;;;;;;5078569;28;20024;-74
2023/10/02 03:30:58;;;;;;;17.58;7.70;;;11.00;99.90;;;;;;5096314;28;20282;-73
2023/10/02 03:33:30;;;;;;;18.02;7.55;;;11.00;99.90;;;;;;5078653;28;20051;-74
2023/10/02 03:36:09;;;;;;;18.42;9.07;;;11.00;99.90;;;;;;5096170;28;20024;-74
2023/10/02 03:38:42;;;;;;;14.65;8.02;;;11.00;99.90;;;;;;5097184;28;20024;-74
2023/10/02 03:41:10;;;;;;;24.63;9.98;;;11.00;99.90;;;;;;5097189;28;20380;-74
2023/10/02 03:43:42;;;;;;;15.80;7.50;;;11.00;99.90;;;;;;5097508;28;20031;-74
2023/10/02 03:46:15;;;;;;;19.75;8.82;;;11.00;99.90;;;;;;5078731;28;20020;-74
2023/10/02 03:48:41;;;;;;;18.98;8.50;;;11.00;99.90;;;;;;5078946;28;20039;-74
2023/10/02 03:51:07;;;;;;;18.95;7.88;;;11.00;99.90;;;;;;5097160;28;20032;-74
2023/10/02 03:53:36;;;;;;;19.23;8.50;;;11.00;99.90;;;;;;5078884;28;20077;-74
2023/10/02 03:58:50;;;;;;;18.17;7.95;;;10.90;99.90;;;;;;5097168;28;20084;-74
2023/10/02 04:01:26;;;;;;;17.88;8.35;;;10.90;99.90;;;;;;5078367;28;20024;-74
2023/10/02 04:06:35;;;;;;;20.10;9.80;;;10.90;99.90;;;;;;5096295;28;20020;-73
2023/10/02 04:09:24;;;;;;;17.77;7.78;;;10.90;99.90;;;;;;5096122;28;20062;-72
2023/10/02 04:11:54;;;;;;;14.75;7.10;;;10.80;99.90;;;;;;5077515;28;20032;-69
2023/10/02 04:14:31;;;;;;;23.55;8.75;;;10.80;99.90;;;;;;5077086;28;20123;-70
2023/10/02 04:19:48;;;;;;;17.80;8.00;;;10.80;99.90;;;;;;5098366;28;20032;-70
2023/10/02 04:22:22;;;;;;;22.30;9.25;;;10.80;99.90;;;;;;5097823;28;20387;-70
2023/10/02 04:24:58;;;;;;;22.48;9.07;;;10.80;99.90;;;;;;5096991;28;20054;-70
2023/10/02 04:28:12;;;;;;;24.13;9.05;;;10.80;99.90;;;;;;5079286;28;20032;-71
2023/10/02 04:30:24;;;;;;;21.00;10.82;;;10.70;99.90;;;;;;5088411;28;20471;-70
2023/10/02 04:32:59;;;;;;;23.02;10.63;;;10.70;99.90;;;;;;5078355;28;20511;-70
2023/10/02 04:38:09;;;;;;;20.73;9.13;;;10.70;99.90;;;;;;5096919;28;20038;-69
2023/10/02 04:40:49;;;;;;;16.08;8.57;;;10.70;99.90;;;;;;5094857;28;20387;-70
2023/10/02 04:43:25;;;;;;;24.88;9.73;;;10.70;99.90;;;;;;5078577;28;20028;-70
2023/10/02 04:46:08;;;;;;;23.50;10.75;;;10.70;99.90;;;;;;5098707;28;20028;-71
2023/10/02 04:48:59;;;;;;;22.98;10.70;;;10.70;99.90;;;;;;5098794;28;20024;-60
2023/10/02 04:51:23;;;;;;;22.30;9.75;;;10.70;99.90;;;;;;5082799;28;20032;-61
2023/10/02 04:53:49;;;;;;;19.48;9.35;;;10.70;99.90;;;;;;5097717;28;20028;-61
2023/10/02 04:58:49;;;;;;;22.10;9.63;;;10.80;99.90;;;;;;5097881;28;20024;-61
2023/10/02 05:01:29;;;;;;;21.30;8.80;;;10.90;99.90;;;;;;5079322;28;20039;-61
2023/10/02 05:04:07;;;;;;;29.58;9.27;;;10.90;99.90;;;;;;5097867;28;20035;-61
2023/10/02 05:06:52;;;;;;;20.38;8.88;;;10.90;99.90;;;;;;5079609;28;20430;-61
2023/10/02 05:09:26;;;;;;;19.25;8.88;;;10.90;99.90;;;;;;5097838;28;20109;-60
2023/10/02 05:11:55;;;;;;;25.73;9.60;;;11.00;99.90;;;;;;5097808;28;20060;-61
2023/10/02 05:14:26;;;;;;;16.77;8.85;;;10.90;99.90;;;;;;5079319;28;20031;-61
2023/10/02 05:17:16;;;;;;;19.42;9.23;;;11.00;99.90;;;;;;5079408;28;20139;-61
2023/10/02 05:20:00;;;;;;;19.20;8.85;;;10.90;99.90;;;;;;5097281;28;20435;-61
2023/10/02 05:22:30;;;;;;;18.50;8.73;;;10.90;99.90;;;;;;5080153;28;20078;-61
2023/10/02 05:24:59;;;;;;;24.70;8.82;;;10.90;99.90;;;;;;5097229;28;20035;-61
2023/10/02 05:27:30;;;;;;;22.25;9.75;;;10.90;99.90;;;;;;5097388;28;20035;-61
2023/10/02 05:30:12;;;;;;;21.67;9.20;;;10.90;99.90;;;;;;5078925;28;20047;-61
2023/10/02 05:32:39;;;;;;;18.13;8.77;;;10.90;99.90;;;;;;5097324;28;20137;-61
2023/10/02 05:37:42;;;;;;;19.45;8.68;;;11.00;99.90;;;;;;5097137;28;20107;-61
2023/10/02 05:48:38;;;;;;;17.42;8.05;;;11.20;99.90;;;;;;5097412;28;20036;-61
2023/10/02 05:51:09;;;;;;;16.52;8.85;;;11.30;99.90;;;;;;5079663;28;20056;-70
2023/10/02 05:53:37;;;;;;;20.98;8.50;;;11.30;99.90;;;;;;5103339;28;20510;-70
2023/10/02 05:56:12;;;;;;;22.65;8.32;;;11.40;99.90;;;;;;5100173;28;20020;-71
2023/10/02 05:58:41;;;;;;;19.85;8.45;;;11.40;99.90;;;;;;5080808;28;20024;-70
2023/10/02 06:01:23;;;;;;;;;;;11.50;99.90;;;;;;5098928;28;20027;-71
2023/10/02 06:03:58;;;;;;;15.38;7.72;;;11.50;99.90;;;;;;5097282;28;19908;-71
2023/10/02 06:06:25;;;;;;;21.55;9.05;;;11.60;99.90;;;;;;5079024;28;20456;-71
2023/10/02 06:08:54;;;;;;;20.35;8.57;;;11.70;99.90;;;;;;5078677;28;20028;-71
2023/10/02 06:11:28;;;;;;;24.23;8.45;;;11.90;99.90;;;;;;5096625;28;20059;-71
2023/10/02 06:13:56;;;;;;;15.18;7.10;;;12.10;99.90;;;;;;5096909;28;20031;-71
2023/10/02 06:16:26;;;;;;;14.75;7.25;;;12.30;99.90;;;;;;5096709;28;20082;-71
2023/10/02 06:19:00;;;;;;;21.33;8.13;;;12.40;99.90;;;;;;5078245;28;20028;-71
2023/10/02 06:21:45;;;;;;;17.17;7.40;;;12.60;99.90;;;;;;5096314;28;20464;-70
2023/10/02 06:24:18;;;;;;;20.55;7.40;;;12.70;99.90;;;;;;5096273;28;20028;-71
2023/10/02 06:29:32;;;;;;;19.15;8.13;;;12.90;99.90;;;;;;5096308;28;20038;-75
2023/10/02 06:32:11;;;;;;;15.53;7.83;;;12.90;99.90;;;;;;5096185;28;20127;-75
2023/10/02 06:34:39;;;;;;;16.83;7.15;;;13.00;99.90;;;;;;5077645;28;20078;-71
2023/10/02 06:37:13;;;;;;;15.60;7.15;;;13.10;99.90;;;;;;5095983;28;20039;-72
2023/10/02 06:39:45;;;;;;;23.30;8.48;;;13.30;99.90;;;;;;5078321;28;20376;-72
2023/10/02 06:42:17;;;;;;;20.50;7.93;;;13.40;99.90;;;;;;5095933;28;20020;-76
2023/10/02 06:44:55;;;;;;;15.02;7.28;;;13.50;99.90;;;;;;5096005;28;20021;-71
2023/10/02 06:47:28;;;;;;;17.03;7.77;;;13.60;99.90;;;;;;5077686;28;20479;-77
2023/10/02 06:50:02;;;;;;;17.20;8.02;;;13.70;99.90;;;;;;5095581;28;20250;-71
2023/10/02 06:52:32;;;;;;;16.13;7.22;;;13.80;99.90;;;;;;5077247;28;20040;-71
2023/10/02 06:55:01;;;;;;;16.45;7.57;;;14.00;99.90;;;;;;5096152;28;20020;-71
2023/10/02 06:57:27;;;;;;;13.57;7.07;;;14.30;99.90;;;;;;5095689;28;20028;-76
2023/10/02 06:59:53;;;;;;;17.38;7.10;;;14.60;99.90;;;;;;5077694;28;20089;-76
2023/10/02 07:02:23;;;;;;;19.75;7.65;;;15.00;99.90;;;;;;5077883;28;20043;-76
2023/10/02 07:04:50;;;;;;;16.33;7.25;;;15.40;99.90;;;;;;5077647;28;20353;-76
2023/10/02 07:07:20;;;;;;;18.98;8.18;;;15.80;99.90;;;;;;5096384;28;20479;-76
2023/10/02 07:09:48;;;;;;;16.17;7.63;;;16.20;99.90;;;;;;5096454;28;20024;-75
2023/10/02 07:12:13;;;;;;;16.13;6.57;;;16.60;99.90;;;;;;5094422;28;20031;-76
2023/10/02 07:14:41;;;;;;;14.43;6.97;;;16.90;99.90;;;;;;5095126;28;20024;-76
2023/10/02 07:17:16;;;;;;;19.52;7.15;;;17.30;99.90;;;;;;5094957;28;20046;-76
2023/10/02 07:19:50;;;;;;;16.13;7.53;;;17.80;99.90;;;;;;5095265;28;20057;-76
2023/10/02 07:22:24;;;;;;;18.75;7.35;;;18.40;99.90;;;;;;5095380;28;20028;-76
2023/10/02 07:24:52;;;;;;;15.98;8.07;;;19.10;99.90;;;;;;5095290;28;20103;-76
2023/10/02 07:27:23;;;;;;;18.15;7.70;;;19.70;99.90;;;;;;5095124;28;20092;-76
2023/10/02 07:29:59;;;;;;;15.48;7.90;;;20.30;99.90;;;;;;5095230;28;20028;-76
2023/10/02 07:32:27;;;;;;;18.05;7.65;;;20.90;99.90;;;;;;5075194;28;20042;-76
2023/10/02 07:34:55;;;;;;;14.93;8.10;;;21.20;99.90;;;;;;5074272;28;20426;-76
2023/10/02 07:37:22;;;;;;;13.32;7.32;;;21.90;99.90;;;;;;5074860;28;20071;-75
2023/10/02 07:39:56;;;;;;;16.63;7.80;;;22.20;99.90;;;;;;5077695;28;20016;-73
2023/10/02 07:42:23;;;;;;;14.90;7.40;;;22.70;99.90;;;;;;5078671;28;20096;-59
2023/10/02 07:44:50;;;;;;;13.88;7.03;;;23.10;99.20;;;;;;5075154;28;20497;-58
2023/10/02 07:47:19;;;;;;;18.15;7.50;;;23.60;98.10;;;;;;5074710;28;20415;-60
2023/10/02 07:49:51;;;;;;;;;;;23.90;96.90;;;;;;5074590;28;20028;-60
2023/10/02 07:52:35;;;;;;;11.30;6.65;;;24.10;96.80;;;;;;5073212;28;20356;-61
2023/10/02 07:55:02;;;;;;;15.45;8.35;;;24.20;95.50;;;;;;5073992;28;20066;-61
2023/10/02 07:57:32;;;;;;;14.10;8.23;;;24.70;93.70;;;;;;5074370;28;20024;-61
2023/10/02 08:00:33;;;;;;;15.77;8.00;;;24.90;92.90;;;;;;5073137;28;20024;-61
2023/10/02 08:02:55;;;;;;;14.77;7.73;;;25.30;91.60;;;;;;5073247;28;20124;-61
2023/10/02 08:05:21;;;;;;;15.48;7.32;;;25.80;90.20;;;;;;5084176;28;20025;-61
2023/10/02 08:07:47;;;;;;;16.55;7.88;;;26.20;88.30;;;;;;5087186;28;20036;-66
2023/10/02 08:10:16;;;;;;;13.60;7.90;;;26.70;84.90;;;;;;5084814;28;20017;-61
2023/10/02 08:12:54;;;;;;;;;;;26.90;80.60;;;;;;5082647;28;20040;-61
2023/10/02 08:15:26;;;;;;;15.68;8.30;;;26.80;79.30;;;;;;5079849;28;19904;-60
2023/10/02 08:18:03;;;;;;;16.05;7.50;;;27.10;78.20;;;;;;5073847;28;20534;-61
2023/10/02 08:20:36;;;;;;;14.00;7.47;;;27.20;77.80;;;;;;5074041;28;20388;-61
2023/10/02 08:23:21;;;;;;;16.52;8.55;;;27.20;77.20;;;;;;5074015;28;20070;-61
2023/10/02 08:26:02;;;;;;;12.77;7.63;;;27.40;75.70;;;;;;5074041;28;20082;-61
2023/10/02 08:28:37;;;;;;;15.93;8.60;;;27.50;75.00;;;;;;5073639;28;20139;-60
2023/10/02 08:31:03;;;;;;;18.20;8.65;;;27.60;74.10;;;;;;5063217;28;20126;-60
2023/10/02 08:33:31;;;;;;;11.60;7.43;;;27.90;73.90;;;;;;5052404;28;20045;-60
2023/10/02 08:35:58;;;;;;;15.60;8.15;;;28.30;71.70;;;;;;5053769;28;20021;-61
2023/10/02 08:38:26;;;;;;;16.73;7.72;;;28.50;70.90;;;;;;5052352;28;20461;-61
2023/10/02 08:40:59;;;;;;;11.02;7.57;;;28.60;67.70;;;;;;5053813;28;20045;-61
2023/10/02 08:43:28;;;;;;;16.23;8.57;;;29.00;66.20;;;;;;5053944;28;20040;-61
2023/10/02 08:45:54;;;;;;;13.32;7.93;;;29.20;64.60;;;;;;5053645;28;20028;-61
2023/10/02 08:48:21;;;;;;;14.65;8.10;;;29.30;63.10;;;;;;5053341;28;20057;-61
2023/10/02 08:50:50;;;;;;;14.13;8.20;;;29.40;62.40;;;;;;5053632;28;20067;-61
2023/10/02 08:53:23;;;;;;;12.50;7.50;;;29.70;60.80;;;;;;5053863;28;20094;-61
2023/10/02 08:56:21;;;;;;;13.43;7.63;;;30.10;60.30;;;;;;5053803;28;20036;-61
2023/10/02 08:59:11;;;;;;;15.00;7.55;;;30.40;58.70;;;;;;5053634;28;20049;-61
2023/10/02 09:01:34;;;;;;;10.63;6.72;;;30.80;57.10;;;;;;5053337;28;20082;-61
2023/10/02 09:06:44;;;;;;;18.10;8.23;;;31.60;54.30;;;;;;5053532;28;20036;-61
2023/10/02 09:11:52;;;;;;;12.88;7.57;;;32.30;52.80;;;;;;5055758;28;20469;-61
2023/10/02 09:16:46;;;;;;;10.32;7.00;;;32.30;51.80;;;;;;5055888;28;20029;-61
2023/10/02 09:19:30;;;;;;;11.93;7.57;;;32.50;50.30;;;;;;5055154;28;20064;-61
2023/10/02 09:22:11;;;;;;;11.63;7.30;;;32.70;50.50;;;;;;5053682;28;20037;-61
2023/10/02 09:24:55;;;;;;;13.93;7.05;;;33.00;49.00;;;;;;5053647;28;20056;-61
2023/10/02 09:27:23;;;;;;;12.02;6.65;;;33.40;47.90;;;;;;5053281;28;20453;-61
2023/10/02 09:30:15;;;;;;;9.68;6.70;;;33.80;47.40;;;;;;5053139;28;20369;-61
2023/10/02 09:32:47;;;;;;;10.55;7.05;;;34.10;45.80;;;;;;5052779;28;20057;-61
2023/10/02 09:35:43;;;;;;;10.35;7.07;;;34.10;45.30;;;;;;5054831;28;20041;-61
2023/10/02 09:38:10;;;;;;;12.53;7.23;;;33.90;45.50;;;;;;5057528;28;20143;-61
2023/10/02 09:41:11;;;;;;;14.55;7.07;;;33.50;44.10;;;;;;5057036;28;20021;-61
2023/10/02 09:43:37;;;;;;;11.45;7.20;;;33.70;44.10;;;;;;5057003;28;20421;-61
2023/10/02 09:46:07;;;;;;;10.32;6.95;;;33.80;43.80;;;;;;5056936;28;20060;-61
2023/10/02 09:51:20;;;;;;;10.52;6.32;;;33.60;44.30;;;;;;5056283;28;20039;-61
2023/10/02 09:57:11;;;;;;;8.70;6.35;;;32.40;44.50;;;;;;5047325;28;20045;-61
2023/10/02 09:59:48;;;;;;;8.80;5.97;;;32.30;44.30;;;;;;5056916;28;20374;-61
2023/10/02 10:10:57;;;;;;;14.00;6.45;;;33.90;41.80;;;;;;5056128;28;20037;-61
2023/10/02 10:13:35;;;;;;;13.13;6.38;;;33.90;42.60;;;;;;5056135;28;20040;-61
2023/10/02 10:16:18;;;;;;;8.80;5.90;;;33.60;41.70;;;;;;5056114;28;20417;-61
2023/10/02 10:19:41;;;;;;;9.38;5.60;;;33.40;42.40;;;;;;5056130;28;20029;-61
2023/10/02 10:21:56;;;;;;;13.32;6.43;;;33.50;41.70;;;;;;5044806;28;20036;-61
2023/10/02 10:24:56;;;;;;;12.55;6.03;;;33.50;42.40;;;;;;5056030;28;20028;-61
2023/10/02 10:27:41;;;;;;;10.63;5.80;;;33.70;41.60;;;;;;5056142;28;20060;-61
2023/10/02 10:30:28;;;;;;;12.30;5.63;;;34.00;41.60;;;;;;5043527;28;20029;-62
2023/10/02 10:35:38;;;;;;;8.23;5.20;;;34.60;40.30;;;;;;5096171;28;20028;-62
2023/10/02 10:38:25;;;;;;;8.25;5.75;;;34.80;40.30;;;;;;5096044;28;20032;-62
2023/10/02 10:41:01;;;;;;;9.70;6.15;;;34.80;39.60;;;;;;5095940;28;20024;-62
2023/10/02 10:43:55;;;;;;;9.55;5.70;;;34.90;39.40;;;;;;5095661;28;20024;-61
2023/10/02 10:46:26;;;;;;;8.27;6.03;;;35.00;39.70;;;;;;5077679;28;20059;-61
2023/10/02 10:49:19;;;;;;;8.43;5.28;;;34.80;39.60;;;;;;5096238;28;20360;-61
2023/10/02 10:51:52;;;;;;;14.50;5.97;;;34.70;41.00;;;;;;5095515;28;20506;-61
2023/10/02 10:54:30;;;;;;;8.68;5.65;;;35.00;39.60;;;;;;5095589;28;20031;-62
2023/10/02 11:00:28;;;;;;;7.45;5.22;;;34.90;40.60;;;;;;5095310;28;20513;-62
2023/10/02 11:03:07;;;;;;;12.27;5.72;;;35.20;40.70;;;;;;5045097;28;20032;-62
2023/10/02 11:05:35;;;;;;;9.00;5.75;;;35.40;39.70;;;;;;5095410;28;20028;-62
2023/10/02 11:08:25;;;;;;;9.07;5.80;;;35.60;39.20;;;;;;5077231;28;20028;-62
2023/10/02 11:11:06;;;;;;;9.43;6.07;;;35.10;39.20;;;;;;5095314;28;20199;-61
2023/10/02 11:13:50;;;;;;;9.35;5.28;;;34.50;39.40;;;;;;5095113;28;20024;-61
2023/10/02 11:16:22;;;;;;;9.38;5.78;;;33.60;40.70;;;;;;5095175;28;20024;-61
2023/10/02 11:22:01;;;;;;;14.90;6.15;;;33.50;40.30;;;;;;5095574;28;20039;-61
2023/10/02 11:24:27;;;;;;;7.82;5.60;;;33.60;41.30;;;;;;5094928;28;20024;-61
2023/10/02 11:27:04;;;;;;;8.77;5.95;;;34.20;41.40;;;;;;5095113;28;20103;-61
2023/10/02 11:30:00;;;;;;;11.18;5.07;;;33.40;39.70;;;;;;5095033;28;20024;-61
2023/10/02 11:32:23;;;;;;;11.20;6.03;;;33.60;41.70;;;;;;5093766;28;20051;-61
2023/10/02 11:35:03;;;;;;;10.73;6.20;;;34.00;41.00;;;;;;5076420;28;20024;-61
2023/10/02 11:37:28;;;;;;;7.60;5.40;;;34.20;41.10;;;;;;5076394;28;20208;-61
2023/10/02 11:39:55;;;;;;;9.82;5.53;;;34.00;40.10;;;;;;5094317;28;20024;-73
2023/10/02 11:42:24;;;;;;;8.38;5.53;;;34.80;39.40;;;;;;5076460;28;20400;-73
2023/10/02 11:44:50;;;;;;;8.13;6.00;;;35.40;38.40;;;;;;5094746;28;20444;-74
2023/10/02 11:47:16;;;;;;;9.85;5.35;;;35.90;38.00;;;;;;5094765;28;20028;-73
2023/10/02 11:49:42;;;;;;;10.35;6.13;;;36.10;37.90;;;;;;5094620;28;20368;-73
2023/10/02 11:52:08;;;;;;;7.93;5.47;;;36.40;37.60;;;;;;5094431;28;20036;-73
2023/10/02 11:54:39;;;;;;;9.27;5.45;;;36.60;37.00;;;;;;5094352;28;20024;-73
2023/10/02 11:57:09;;;;;;;8.20;5.47;;;36.20;36.90;;;;;;5094296;28;20024;-73
2023/10/02 11:59:50;;;;;;;10.77;5.05;;;36.30;37.00;;;;;;5094521;28;20028;-73
2023/10/02 12:02:19;;;;;;;8.70;5.53;;;35.70;37.30;;;;;;5094896;28;20115;-72
2023/10/02 12:04:45;;;;;;;6.70;5.18;;;35.30;37.30;;;;;;5094133;28;20106;-73
2023/10/02 12:07:12;;;;;;;6.25;4.75;;;34.50;38.40;;;;;;5094405;28;20020;-73
2023/10/02 12:09:38;;;;;;;11.50;5.47;;;35.00;39.00;;;;;;5094539;28;20060;-74
2023/10/02 12:12:04;;;;;;;8.23;5.45;;;35.80;37.70;;;;;;5076432;28;20028;-73
2023/10/02 12:14:30;;;;;;;12.18;5.78;;;36.20;37.70;;;;;;5095653;28;20028;-73
2023/10/02 12:17:00;;;;;;;7.32;5.15;;;36.90;37.30;;;;;;5095495;28;20429;-74
2023/10/02 12:19:29;;;;;;;9.60;5.68;;;37.50;36.80;;;;;;5077671;28;20031;-75
2023/10/02 12:21:55;;;;;;;12.02;6.07;;;37.40;37.00;;;;;;5081652;28;20035;-73
2023/10/02 12:24:21;;;;;;;9.20;5.63;;;37.20;36.70;;;;;;5098446;28;20028;-73
2023/10/02 12:26:48;;;;;;;10.38;5.80;;;37.40;36.70;;;;;;5097443;28;20455;-73
2023/10/02 12:29:15;;;;;;;8.82;5.63;;;37.60;36.50;;;;;;5096857;28;20024;-72
2023/10/02 12:31:42;;;;;;;8.63;5.65;;;37.00;36.60;;;;;;5094484;28;20056;-71
2023/10/02 12:34:08;;;;;;;12.00;6.13;;;36.70;37.10;;;;;;5093972;28;20020;-71
2023/10/02 12:36:33;;;;;;;9.07;5.55;;;35.10;38.70;;;;;;5094131;28;20380;-72
2023/10/02 12:38:59;;;;;;;8.00;5.88;;;35.30;38.80;;;;;;5093899;28;20437;-72
2023/10/02 12:41:30;;;;;;;9.65;6.00;;;35.30;38.40;;;;;;5094128;28;20433;-72
2023/10/02 12:43:56;;;;;;;11.43;5.07;;;35.20;39.20;;;;;;5075832;28;20024;-71
2023/10/02 12:46:41;;;;;;;8.45;5.90;;;35.30;39.50;;;;;;5094090;28;20025;-72
2023/10/02 12:49:07;;;;;;;8.10;5.40;;;35.50;39.10;;;;;;5094115;28;20020;-72
2023/10/02 12:51:33;;;;;;;10.55;6.05;;;35.90;38.80;;;;;;5093880;28;20035;-71
2023/10/02 12:53:58;;;;;;;10.27;6.32;;;35.30;39.20;;;;;;5094261;28;20349;-70
2023/10/02 12:56:24;;;;;;;11.40;6.20;;;34.50;40.00;;;;;;5093993;28;20031;-70
2023/10/02 12:58:54;;;;;;;8.90;5.45;;;34.50;40.50;;;;;;5094986;28;20028;-71
2023/10/02 13:01:27;;;;;;;13.55;6.38;;;34.80;40.50;;;;;;5098015;28;20032;-71
2023/10/02 13:03:54;;;;;;;11.05;5.47;;;35.30;39.70;;;;;;5099182;28;20020;-72
2023/10/02 13:06:22;;;;;;;10.23;5.87;;;35.20;40.10;;;;;;5080199;28;20028;-72
2023/10/02 13:08:49;;;;;;;9.60;6.03;;;35.50;40.00;;;;;;5098663;28;20258;-72
2023/10/02 13:11:20;;;;;;;8.23;5.68;;;35.50;39.70;;;;;;5100312;28;20036;-72
2023/10/02 13:13:48;;;;;;;63.22;9.30;;;35.30;40.20;;;;;;5098983;28;20112;-71
2023/10/02 13:16:15;;;;;;;10.70;5.88;;;34.50;41.00;;;;;;5097770;28;20464;-71
2023/10/02 13:18:43;;;;;;;10.73;5.95;;;34.40;41.40;;;;;;5097222;28;20111;-71
2023/10/02 13:21:10;;;;;;;;;;;34.40;41.40;;;;;;5097820;28;20028;-72
2023/10/02 13:23:36;;;;;;;9.55;5.57;;;34.30;41.40;;;;;;5079444;28;20312;-71
2023/10/02 13:26:09;;;;;;;11.32;5.18;;;34.60;41.10;;;;;;5079294;28;20459;-72
2023/10/02 13:28:35;;;;;;;11.43;6.25;;;34.80;41.00;;;;;;5097388;28;20028;-72
2023/10/02 13:31:12;;;;;;;11.50;5.55;;;34.80;41.30;;;;;;5097094;28;20051;-71
2023/10/02 13:33:46;;;;;;;12.77;6.13;;;34.60;40.80;;;;;;5097461;28;20044;-72
2023/10/02 13:36:15;;;;;;;10.07;6.05;;;34.50;41.60;;;;;;5097124;28;20035;-71
2023/10/02 13:38:41;;;;;;;13.63;6.05;;;34.50;41.40;;;;;;5078792;28;20028;-71
2023/10/02 13:41:13;;;;;;;9.52;5.72;;;34.30;41.60;;;;;;5096772;28;20379;-72
2023/10/02 13:43:43;;;;;;;9.98;5.55;;;34.00;42.00;;;;;;5096721;28;20485;-71
2023/10/02 13:46:10;;;;;;;9.35;5.60;;;33.40;42.20;;;;;;5096992;28;20020;-71
2023/10/02 13:48:37;;;;;;;11.60;5.80;;;33.10;42.70;;;;;;5078709;28;20027;-71
2023/10/02 13:51:04;;;;;;;9.45;5.53;;;32.80;43.60;;;;;;5096843;28;20145;-72
2023/10/02 13:53:32;;;;;;;10.57;5.90;;;32.60;44.60;;;;;;5097156;28;20040;-72
2023/10/02 13:56:16;;;;;;;10.88;5.90;;;32.00;45.40;;;;;;5096784;28;20024;-72
2023/10/02 13:58:43;;;;;;;15.55;6.13;;;31.70;45.40;;;;;;5078655;28;20020;-72
2023/10/02 14:01:10;;;;;;;9.57;5.78;;;31.10;46.80;;;;;;5096752;28;20024;-71
2023/10/02 14:03:36;;;;;;;13.23;6.10;;;30.80;47.60;;;;;;5078487;28;20535;-71
2023/10/02 14:06:07;;;;;;;12.55;5.57;;;30.50;49.10;;;;;;5096717;28;20102;-71
2023/10/02 14:08:36;;;;;;;11.63;6.47;;;30.00;50.00;;;;;;5096703;28;20036;-71
2023/10/02 14:11:02;;;;;;;11.55;5.93;;;29.50;48.70;;;;;;5096820;28;20405;-71
2023/10/02 14:13:28;;;;;;;12.57;6.00;;;29.20;49.80;;;;;;5096642;28;20051;-71
2023/10/02 14:15:54;;;;;;;9.55;5.40;;;29.10;49.90;;;;;;5096434;28;20024;-71
2023/10/02 14:18:23;;;;;;;16.90;6.00;;;29.10;50.00;;;;;;5096563;28;20109;-71
2023/10/02 14:21:08;;;;;;;13.07;6.20;;;29.10;52.20;;;;;;5077907;28;20081;-72